createdAt,value
2018-10-21T00:00:37.532Z,82.83
2018-10-21T00:03:06.248Z,89.37
2018-10-21T00:05:34.651Z,89.93
2018-10-21T00:08:03.041Z,91.43
2018-10-21T00:10:31.556Z,87.33
2018-10-21T00:12:59.970Z,81.07
2018-10-21T00:15:28.496Z,88.67
2018-10-21T00:17:56.783Z,120.77
2018-10-21T00:20:25.198Z,117.60
2018-10-21T00:22:53.872Z,117.97
2018-10-21T00:25:22.249Z,139.90
2018-10-21T00:27:50.656Z,118.70
2018-10-21T00:30:19.032Z,121.17
2018-10-21T00:32:47.703Z,109.00
2018-10-21T00:35:16.372Z,105.27
2018-10-21T00:37:45.355Z,101.40
2018-10-21T00:40:13.743Z,101.33
2018-10-21T00:42:42.135Z,90.23
2018-10-21T00:45:11.449Z,91.07
2018-10-21T00:47:39.900Z,80.23
2018-10-21T00:50:09.523Z,90.03
2018-10-21T00:52:37.920Z,96.70
2018-10-21T00:55:07.086Z,93.67
2018-10-21T00:57:35.474Z,90.13
2018-10-21T01:00:04.129Z,86.27
2018-10-21T01:02:33.128Z,87.07
2018-10-21T01:05:01.527Z,79.40
2018-10-21T01:07:29.899Z,81.90
2018-10-21T01:09:58.278Z,75.63
2018-10-21T01:12:26.669Z,75.40
2018-10-21T01:14:55.134Z,75.87
2018-10-21T01:17:23.583Z,71.90
2018-10-21T01:19:51.969Z,74.00
2018-10-21T01:22:20.360Z,73.50
2018-10-21T01:24:48.708Z,70.80
2018-10-21T01:27:17.163Z,70.67
2018-10-21T01:29:46.128Z,66.83
2018-10-21T01:32:15.949Z,66.10
2018-10-21T01:34:44.336Z,59.70
2018-10-21T01:37:12.795Z,61.73
2018-10-21T01:40:53.947Z,60.03
2018-10-21T01:43:23.603Z,54.90
2018-10-21T01:45:52.004Z,50.73
2018-10-21T01:48:21.495Z,42.93
2018-10-21T01:50:49.869Z,45.70
2018-10-21T01:53:19.075Z,52.43
2018-10-21T01:55:47.503Z,44.83
2018-10-21T01:58:15.888Z,50.07
2018-10-21T02:00:44.507Z,50.07
2018-10-21T02:03:12.994Z,47.43
2018-10-21T02:05:42.311Z,45.13
2018-10-21T02:08:10.706Z,43.03
2018-10-21T02:10:39.098Z,43.53
2018-10-21T02:13:07.663Z,43.07
2018-10-21T02:15:36.048Z,40.53
2018-10-21T02:18:04.668Z,39.50
2018-10-21T02:20:33.138Z,36.33
2018-10-21T02:23:01.542Z,34.13
2018-10-21T02:25:30.035Z,35.03
2018-10-21T02:27:58.420Z,34.20
2018-10-21T02:30:28.115Z,35.13
2018-10-21T02:32:56.932Z,32.23
2018-10-21T02:35:25.483Z,30.60
2018-10-21T02:37:54.595Z,30.33
2018-10-21T02:41:39.284Z,29.73
2018-10-21T02:44:08.772Z,29.03
2018-10-21T02:46:37.963Z,26.10
2018-10-21T02:49:07.048Z,27.40
2018-10-21T02:51:35.437Z,27.40
2018-10-21T02:54:03.827Z,24.03
2018-10-21T02:56:32.229Z,23.90
2018-10-21T02:59:00.595Z,25.20
2018-10-21T03:01:28.978Z,24.60
2018-10-21T03:03:57.364Z,24.70
2018-10-21T03:06:25.741Z,23.20
2018-10-21T03:08:54.151Z,21.73
2018-10-21T03:11:22.497Z,22.37
2018-10-21T03:13:50.887Z,22.07
2018-10-21T03:16:19.260Z,22.77
2018-10-21T03:18:47.637Z,28.00
2018-10-21T03:21:16.095Z,30.13
2018-10-21T03:23:44.540Z,29.20
2018-10-21T03:26:12.900Z,30.63
2018-10-21T03:28:41.283Z,28.30
2018-10-21T03:31:09.676Z,25.40
2018-10-21T03:33:38.078Z,26.53
2018-10-21T03:36:06.618Z,25.50
2018-10-21T03:38:35.007Z,24.13
2018-10-21T03:41:03.479Z,21.93
2018-10-21T03:43:31.951Z,23.50
2018-10-21T03:46:00.365Z,22.13
2018-10-21T03:48:28.722Z,21.67
2018-10-21T03:50:57.118Z,22.60
2018-10-21T03:53:25.526Z,20.67
2018-10-21T03:55:53.980Z,21.80
2018-10-21T03:58:22.352Z,19.13
2018-10-21T04:00:50.723Z,18.70
2018-10-21T04:03:19.115Z,17.97
2018-10-21T04:05:47.499Z,19.43
2018-10-21T04:08:15.883Z,16.70
2018-10-21T04:10:44.273Z,17.53
2018-10-21T04:13:12.699Z,18.13
2018-10-21T04:15:41.255Z,16.50
2018-10-21T04:18:09.646Z,16.70
2018-10-21T04:20:38.048Z,15.43
2018-10-21T04:23:06.415Z,15.43
2018-10-21T04:25:36.099Z,14.90
2018-10-21T04:28:05.055Z,15.63
2018-10-21T04:30:34.487Z,14.93
2018-10-21T04:34:08.837Z,14.23
2018-10-21T04:36:37.211Z,13.33
2018-10-21T04:39:16.927Z,13.90
2018-10-21T04:41:45.299Z,13.90
2018-10-21T04:44:13.695Z,11.80
2018-10-21T04:46:42.236Z,12.70
2018-10-21T04:49:10.584Z,13.80
2018-10-21T04:51:38.978Z,12.37
2018-10-21T04:54:07.464Z,12.53
2018-10-21T04:56:35.852Z,11.03
2018-10-21T04:59:04.527Z,11.83
2018-10-21T05:01:32.928Z,11.33
2018-10-21T05:04:01.344Z,11.30
2018-10-21T05:06:29.667Z,10.80
2018-10-21T05:08:58.052Z,11.97
2018-10-21T05:11:26.424Z,10.90
2018-10-21T05:13:54.871Z,10.97
2018-10-21T05:16:23.452Z,11.30
2018-10-21T05:18:51.876Z,10.23
2018-10-21T05:21:20.351Z,10.73
2018-10-21T05:23:48.810Z,13.17
2018-10-21T05:26:17.220Z,15.97
2018-10-21T05:28:45.675Z,17.20
2018-10-21T05:31:14.079Z,19.37
2018-10-21T05:33:42.493Z,19.70
2018-10-21T05:36:10.875Z,20.23
2018-10-21T05:38:39.296Z,22.30
2018-10-21T05:41:07.672Z,19.53
2018-10-21T05:43:36.054Z,19.23
2018-10-21T05:46:04.631Z,18.50
2018-10-21T05:48:33.156Z,17.20
2018-10-21T05:51:01.532Z,16.73
2018-10-21T05:53:29.952Z,17.77
2018-10-21T05:55:58.323Z,16.73
2018-10-21T05:58:26.804Z,17.17
2018-10-21T06:00:55.089Z,16.87
2018-10-21T06:03:23.477Z,18.20
2018-10-21T06:05:51.866Z,19.70
2018-10-21T06:08:20.235Z,21.37
2018-10-21T06:10:48.614Z,18.77
2018-10-21T06:13:17.020Z,19.60
2018-10-21T06:15:45.533Z,19.27
2018-10-21T06:18:22.379Z,18.93
2018-10-21T06:20:54.174Z,17.50
2018-10-21T06:23:22.555Z,17.50
2018-10-21T06:25:52.749Z,17.93
2018-10-21T06:28:21.136Z,16.77
2018-10-21T06:30:49.542Z,16.60
2018-10-21T06:33:18.144Z,16.03
2018-10-21T06:35:46.414Z,15.90
2018-10-21T06:38:14.803Z,15.90
2018-10-21T06:40:43.176Z,15.43
2018-10-21T06:43:11.547Z,14.77
2018-10-21T06:45:39.947Z,14.00
2018-10-21T06:48:08.357Z,13.83
2018-10-21T06:50:36.838Z,14.00
2018-10-21T06:53:05.228Z,12.63
2018-10-21T06:55:33.591Z,12.97
2018-10-21T06:58:01.963Z,14.10
2018-10-21T07:00:30.379Z,11.67
2018-10-21T07:02:58.749Z,12.03
2018-10-21T07:05:38.557Z,11.60
2018-10-21T07:08:06.943Z,12.30
2018-10-21T07:10:35.343Z,11.37
2018-10-21T07:13:03.716Z,11.67
2018-10-21T07:15:32.145Z,10.30
2018-10-21T07:18:00.572Z,10.77
2018-10-21T07:20:28.977Z,10.77
2018-10-21T07:22:57.399Z,10.70
2018-10-21T07:25:25.780Z,10.00
2018-10-21T07:27:54.167Z,9.70
2018-10-21T07:30:22.580Z,9.50
2018-10-21T07:32:50.959Z,9.47
2018-10-21T07:35:19.346Z,9.97
2018-10-21T07:37:47.731Z,9.30
2018-10-21T07:40:16.176Z,9.60
2018-10-21T07:42:44.683Z,8.97
2018-10-21T07:45:16.623Z,9.07
2018-10-21T07:47:45.020Z,9.07
2018-10-21T07:50:13.550Z,8.57
2018-10-21T07:52:41.936Z,7.90
2018-10-21T07:55:14.587Z,8.37
2018-10-21T07:57:42.939Z,9.30
2018-10-21T08:00:11.313Z,7.97
2018-10-21T08:02:39.789Z,7.87
2018-10-21T08:06:17.070Z,8.27
2018-10-21T08:08:45.500Z,7.57
2018-10-21T08:11:13.943Z,7.87
2018-10-21T08:13:42.528Z,7.20
2018-10-21T08:16:10.988Z,7.17
2018-10-21T08:18:39.287Z,7.27
2018-10-21T08:21:07.884Z,7.13
2018-10-21T08:23:36.266Z,6.63
2018-10-21T08:26:04.847Z,7.80
2018-10-21T08:28:33.267Z,7.57
2018-10-21T08:31:01.671Z,7.13
2018-10-21T08:33:30.036Z,6.83
2018-10-21T08:35:59.045Z,6.60
2018-10-21T08:38:27.383Z,7.10
2018-10-21T08:40:55.936Z,6.67
2018-10-21T08:43:24.307Z,6.27
2018-10-21T08:45:52.697Z,7.17
2018-10-21T08:48:21.081Z,6.80
2018-10-21T08:50:49.607Z,6.53
2018-10-21T08:53:18.012Z,5.73
2018-10-21T08:55:46.462Z,6.07
2018-10-21T08:58:14.928Z,5.97
2018-10-21T09:00:43.220Z,6.00
2018-10-21T09:03:11.590Z,5.63
2018-10-21T09:05:39.974Z,6.03
2018-10-21T09:08:08.329Z,6.53
2018-10-21T09:10:36.963Z,5.90
2018-10-21T09:13:05.255Z,5.27
2018-10-21T09:15:33.610Z,5.83
2018-10-21T09:18:01.978Z,5.37
2018-10-21T09:20:30.368Z,5.40
2018-10-21T09:22:58.757Z,5.63
2018-10-21T09:25:27.140Z,5.63
2018-10-21T09:27:55.566Z,5.13
2018-10-21T09:30:23.914Z,5.50
2018-10-21T09:32:52.306Z,5.53
2018-10-21T09:35:20.682Z,5.13
2018-10-21T09:37:49.177Z,4.97
2018-10-21T09:40:18.845Z,5.27
2018-10-21T09:42:47.819Z,4.73
2018-10-21T09:45:18.781Z,5.10
2018-10-21T09:47:47.445Z,4.40
2018-10-21T09:50:15.909Z,4.67
2018-10-21T09:52:44.370Z,4.43
2018-10-21T09:55:19.351Z,5.23
2018-10-21T09:57:48.420Z,5.10
2018-10-21T10:00:22.137Z,4.60
2018-10-21T10:02:55.936Z,5.10
2018-10-21T10:05:24.363Z,4.60
2018-10-21T10:07:53.625Z,4.83
2018-10-21T10:10:22.052Z,4.57
2018-10-21T10:12:50.468Z,5.00
2018-10-21T10:15:19.063Z,4.77
2018-10-21T10:17:48.012Z,4.60
2018-10-21T10:20:16.243Z,18.97
2018-10-21T10:22:44.655Z,17.40
2018-10-21T10:25:13.938Z,26.87
2018-10-21T10:27:42.336Z,39.27
2018-10-21T10:30:11.906Z,35.70
2018-10-21T10:32:41.829Z,35.20
2018-10-21T10:35:11.243Z,34.33
2018-10-21T10:37:39.896Z,33.87
2018-10-21T10:40:09.379Z,37.60
2018-10-21T10:42:37.703Z,33.37
2018-10-21T10:45:06.957Z,41.13
2018-10-21T10:47:35.551Z,38.07
2018-10-21T10:50:04.439Z,46.73
2018-10-21T10:52:32.834Z,51.13
2018-10-21T10:55:02.310Z,41.43
2018-10-21T10:57:30.956Z,40.87
2018-10-21T10:59:59.486Z,56.90
2018-10-21T11:02:28.097Z,59.80
2018-10-21T11:05:03.074Z,52.60
2018-10-21T11:07:31.448Z,40.20
2018-10-21T11:10:00.020Z,39.50
2018-10-21T11:12:28.422Z,39.23
2018-10-21T11:14:56.839Z,39.33
2018-10-21T11:17:25.237Z,37.67
2018-10-21T11:19:53.657Z,35.43
2018-10-21T11:22:22.291Z,33.93
2018-10-21T11:24:50.662Z,34.40
2018-10-21T11:27:19.264Z,33.57
2018-10-21T11:29:48.759Z,31.53
2018-10-21T11:32:17.210Z,31.53
2018-10-21T11:34:45.786Z,44.43
2018-10-21T11:37:14.353Z,39.20
2018-10-21T11:39:42.759Z,39.00
2018-10-21T11:42:11.169Z,36.27
2018-10-21T11:44:39.556Z,42.87
2018-10-21T11:47:07.970Z,45.83
2018-10-21T11:49:36.464Z,51.30
2018-10-21T11:52:05.179Z,42.70
2018-10-21T11:54:33.568Z,58.63
2018-10-21T11:57:02.027Z,83.07
2018-10-21T11:59:30.408Z,108.33
2018-10-21T12:01:58.855Z,53.83
2018-10-21T12:04:27.375Z,53.37
2018-10-21T12:06:55.900Z,56.37
2018-10-21T12:09:24.302Z,54.33
2018-10-21T12:11:52.681Z,49.50
2018-10-21T12:14:21.088Z,49.27
2018-10-21T12:16:49.489Z,49.10
2018-10-21T12:19:18.000Z,47.93
2018-10-21T12:21:46.467Z,44.13
2018-10-21T12:24:14.867Z,44.90
2018-10-21T12:26:43.337Z,43.43
2018-10-21T12:29:11.751Z,41.47
2018-10-21T12:31:40.135Z,40.27
2018-10-21T12:34:08.600Z,39.47
2018-10-21T12:36:36.962Z,49.67
2018-10-21T12:39:07.949Z,106.27
2018-10-21T12:41:36.870Z,65.37
2018-10-21T12:44:05.378Z,46.60
2018-10-21T12:46:33.738Z,45.07
2018-10-21T12:49:02.171Z,42.80
2018-10-21T12:51:30.554Z,43.50
2018-10-21T12:53:59.098Z,42.20
2018-10-21T12:56:27.522Z,40.00
2018-10-21T12:58:55.987Z,41.20
2018-10-21T13:01:24.430Z,47.60
2018-10-21T13:03:53.213Z,42.00
2018-10-21T13:06:21.676Z,38.53
2018-10-21T13:08:50.119Z,38.23
2018-10-21T13:11:18.527Z,36.90
2018-10-21T13:13:46.953Z,38.67
2018-10-21T13:16:15.400Z,38.20
2018-10-21T13:18:43.813Z,36.30
2018-10-21T13:21:12.217Z,35.90
2018-10-21T13:23:40.612Z,35.37
2018-10-21T13:26:09.001Z,31.87
2018-10-21T13:28:37.498Z,37.70
2018-10-21T13:31:06.900Z,43.50
2018-10-21T13:33:35.240Z,53.70
2018-10-21T13:36:03.886Z,58.93
2018-10-21T13:38:32.442Z,45.67
2018-10-21T13:41:01.244Z,41.27
2018-10-21T13:43:29.676Z,36.67
2018-10-21T13:45:58.256Z,37.87
2018-10-21T13:48:26.579Z,38.67
2018-10-21T13:50:54.994Z,34.93
2018-10-21T13:53:23.433Z,36.27
2018-10-21T13:55:51.877Z,36.13
2018-10-21T13:58:20.280Z,37.63
2018-10-21T14:00:48.738Z,37.73
2018-10-21T14:03:17.122Z,38.57
2018-10-21T14:05:45.511Z,38.10
2018-10-21T14:08:13.910Z,34.63
2018-10-21T14:10:42.315Z,36.10
2018-10-21T14:16:01.734Z,32.97
2018-10-21T14:18:30.112Z,31.73
2018-10-21T14:20:58.492Z,32.60
2018-10-21T14:23:26.893Z,31.57
2018-10-21T14:25:55.311Z,30.57
2018-10-21T14:28:23.724Z,31.50
2018-10-21T14:30:52.142Z,27.03
2018-10-21T14:33:20.525Z,28.63
2018-10-21T14:35:48.940Z,39.13
2018-10-21T14:38:17.345Z,33.67
2018-10-21T14:40:45.745Z,42.90
2018-10-21T14:43:14.237Z,42.80
2018-10-21T14:45:42.769Z,39.37
2018-10-21T14:48:11.159Z,36.73
2018-10-21T14:50:39.578Z,38.00
2018-10-21T14:53:08.060Z,35.73
2018-10-21T14:55:36.444Z,37.00
2018-10-21T14:58:05.027Z,33.87
2018-10-21T15:00:33.615Z,49.27
2018-10-21T15:03:01.913Z,59.97
2018-10-21T15:05:30.286Z,56.90
2018-10-21T15:07:58.825Z,52.23
2018-10-21T15:10:27.184Z,61.00
2018-10-21T15:12:55.595Z,60.43
2018-10-21T15:15:24.008Z,61.17
2018-10-21T15:17:52.482Z,56.73
2018-10-21T15:20:20.867Z,82.27
2018-10-21T15:22:49.383Z,86.53
2018-10-21T15:25:17.718Z,79.43
2018-10-21T15:27:46.287Z,71.47
2018-10-21T15:30:14.827Z,77.00
2018-10-21T15:32:43.347Z,77.17
2018-10-21T15:35:11.743Z,82.90
2018-10-21T15:37:40.545Z,82.30
2018-10-21T15:40:10.745Z,90.77
2018-10-21T15:42:39.177Z,77.60
2018-10-21T15:45:08.980Z,108.10
2018-10-21T15:47:37.651Z,112.87
2018-10-21T15:50:06.671Z,99.80
2018-10-21T15:52:35.140Z,117.40
2018-10-21T15:55:03.608Z,94.53
2018-10-21T15:57:32.048Z,88.27
2018-10-21T16:00:00.655Z,82.23
2018-10-21T16:02:29.128Z,84.53
2018-10-21T16:04:57.616Z,83.40
2018-10-21T16:07:26.004Z,77.70
2018-10-21T16:09:54.583Z,72.73
2018-10-21T16:12:22.961Z,71.97
2018-10-21T16:14:51.386Z,99.70
2018-10-21T16:17:20.344Z,89.90
2018-10-21T16:19:48.782Z,78.77
2018-10-21T16:22:17.246Z,84.47
2018-10-21T16:24:45.579Z,79.30
2018-10-21T16:27:13.972Z,79.07
2018-10-21T16:29:42.435Z,72.40
2018-10-21T16:32:10.850Z,79.27
2018-10-21T16:34:39.250Z,84.53
2018-10-21T16:37:07.667Z,88.20
2018-10-21T16:39:36.163Z,97.30
2018-10-21T16:42:04.723Z,95.83
2018-10-21T16:44:33.220Z,92.00
2018-10-21T16:47:01.608Z,88.37
2018-10-21T16:49:30.014Z,86.93
2018-10-21T16:51:58.415Z,79.20
2018-10-21T16:54:26.868Z,76.57
2018-10-21T16:56:55.376Z,78.43
2018-10-21T16:59:23.794Z,71.00
2018-10-21T17:01:52.259Z,70.70
2018-10-21T17:04:20.697Z,70.63
2018-10-21T17:06:49.085Z,69.93
2018-10-21T17:09:17.537Z,68.30
2018-10-21T17:11:45.928Z,84.73
2018-10-21T17:14:14.321Z,73.67
2018-10-21T17:16:42.858Z,82.63
2018-10-21T17:19:11.385Z,89.90
2018-10-21T17:21:39.790Z,92.33
2018-10-21T17:24:08.306Z,97.13
2018-10-21T17:26:36.736Z,92.83
2018-10-21T17:29:05.868Z,92.63
2018-10-21T17:31:34.515Z,88.97
2018-10-21T17:34:02.932Z,89.13
2018-10-21T17:36:31.339Z,91.77
2018-10-21T17:38:59.739Z,97.77
2018-10-21T17:41:28.152Z,118.67
2018-10-21T17:43:56.783Z,117.50
2018-10-21T17:46:25.285Z,112.87
2018-10-21T17:48:53.828Z,125.63
2018-10-21T17:51:22.414Z,134.37
2018-10-21T17:53:51.165Z,116.53
2018-10-21T17:56:19.807Z,114.67
2018-10-21T17:58:48.472Z,114.23
2018-10-21T18:01:16.966Z,99.70
2018-10-21T18:03:45.813Z,101.87
2018-10-21T18:06:14.312Z,105.13
2018-10-21T18:08:42.964Z,102.53
2018-10-21T18:11:11.363Z,98.20
2018-10-21T18:13:39.987Z,94.83
2018-10-21T18:16:08.647Z,90.87
2018-10-21T18:18:37.243Z,98.67
2018-10-21T18:21:05.877Z,101.97
2018-10-21T18:23:34.732Z,104.17
2018-10-21T18:26:03.527Z,112.57
2018-10-21T18:28:31.983Z,101.33
2018-10-21T18:31:00.463Z,103.67
2018-10-21T18:33:28.936Z,151.73
2018-10-21T18:35:57.519Z,117.53
2018-10-21T18:38:26.170Z,106.67
2018-10-21T18:40:54.786Z,115.30
2018-10-21T18:43:23.340Z,109.87
2018-10-21T18:45:51.784Z,111.67
2018-10-21T18:48:20.727Z,113.50
2018-10-21T18:50:49.146Z,120.17
2018-10-21T18:53:17.763Z,147.10
2018-10-21T18:55:46.419Z,124.90
2018-10-21T18:58:15.271Z,114.97
2018-10-21T19:00:44.000Z,107.80
2018-10-21T19:03:12.442Z,103.37
2018-10-21T19:05:41.001Z,99.57
2018-10-21T19:08:09.475Z,97.37
2018-10-21T19:10:37.896Z,99.10
2018-10-21T19:13:06.490Z,100.77
2018-10-21T19:15:35.024Z,94.70
2018-10-21T19:18:03.576Z,93.90
2018-10-21T19:20:32.273Z,122.33
2018-10-21T19:23:00.872Z,119.03
2018-10-21T19:25:29.351Z,117.20
2018-10-21T19:27:58.276Z,107.77
2018-10-21T19:30:26.720Z,102.00
2018-10-21T19:32:55.487Z,192.67
2018-10-21T19:35:24.084Z,182.13
2018-10-21T19:37:52.496Z,139.77
2018-10-21T19:40:20.922Z,115.77
2018-10-21T19:42:49.410Z,103.37
2018-10-21T19:45:17.947Z,111.53
2018-10-21T19:47:46.448Z,102.93
2018-10-21T19:50:16.202Z,94.10
2018-10-21T19:52:44.815Z,102.43
2018-10-21T19:55:13.860Z,107.03
2018-10-21T19:57:42.662Z,167.47
2018-10-21T20:00:14.832Z,147.17
2018-10-21T20:02:43.842Z,116.93
2018-10-21T20:05:12.669Z,98.63
2018-10-21T20:07:41.105Z,95.63
2018-10-21T20:10:11.304Z,95.17
2018-10-21T20:12:39.700Z,88.63
2018-10-21T20:15:09.002Z,90.50
2018-10-21T20:17:37.562Z,86.43
2018-10-21T20:20:06.879Z,86.70
2018-10-21T20:22:35.287Z,84.93
2018-10-21T20:25:03.747Z,84.47
2018-10-21T20:27:32.161Z,82.67
2018-10-21T20:30:00.572Z,80.83
2018-10-21T20:32:29.045Z,91.40
2018-10-21T20:34:57.427Z,103.63
2018-10-21T20:37:25.844Z,86.40
2018-10-21T20:39:54.274Z,81.27
2018-10-21T20:42:22.773Z,76.20
2018-10-21T20:44:51.296Z,76.57
2018-10-21T20:47:19.680Z,71.03
2018-10-21T20:49:48.083Z,68.90
2018-10-21T20:52:16.730Z,65.93
2018-10-21T20:54:47.034Z,61.60
2018-10-21T20:57:15.639Z,61.60
2018-10-21T20:59:45.227Z,61.87
2018-10-21T21:02:14.405Z,64.57
2018-10-21T21:04:42.823Z,68.30
2018-10-21T21:07:11.718Z,84.23
2018-10-21T21:09:40.904Z,68.30
2018-10-21T21:12:09.388Z,64.47
2018-10-21T21:14:37.785Z,66.40
2018-10-21T21:17:06.195Z,124.40
2018-10-21T21:19:34.729Z,87.47
2018-10-21T21:22:03.173Z,79.87
2018-10-21T21:24:31.592Z,95.23
2018-10-21T21:27:00.034Z,74.77
2018-10-21T21:29:28.586Z,67.73
2018-10-21T21:31:57.088Z,68.77
2018-10-21T21:34:25.494Z,62.20
2018-10-21T21:36:54.857Z,66.93
2018-10-21T21:39:23.252Z,63.93
2018-10-21T21:41:51.670Z,69.30
2018-10-21T21:44:20.073Z,63.77
2018-10-21T21:46:48.472Z,60.73
2018-10-21T21:49:16.895Z,72.07
2018-10-21T21:51:45.304Z,81.03
2018-10-21T21:54:14.645Z,90.53
2018-10-21T21:56:45.315Z,81.43
2018-10-21T21:59:13.796Z,73.20
2018-10-21T22:01:42.251Z,70.57
2018-10-21T22:04:10.753Z,111.20
2018-10-21T22:06:39.367Z,111.87
2018-10-21T22:09:10.499Z,131.63
2018-10-21T22:11:39.295Z,130.07
2018-10-21T22:14:08.170Z,116.70
2018-10-21T22:16:36.698Z,113.73
2018-10-21T22:19:05.481Z,97.73
2018-10-21T22:21:34.147Z,97.30
2018-10-21T22:24:02.672Z,94.87
2018-10-21T22:26:31.011Z,92.93
2018-10-21T22:28:59.448Z,91.07
2018-10-21T22:31:27.837Z,92.50
2018-10-21T22:33:56.271Z,90.00
2018-10-21T22:36:25.428Z,86.77
2018-10-21T22:38:53.812Z,91.50
2018-10-21T22:41:22.210Z,89.20
2018-10-21T22:43:50.690Z,107.67
2018-10-21T22:46:19.142Z,138.23
2018-10-21T22:48:47.664Z,122.77
2018-10-21T22:51:16.167Z,117.63
2018-10-21T22:53:44.623Z,123.83
2018-10-21T22:56:13.023Z,109.60
2018-10-21T22:58:41.436Z,103.77
2018-10-21T23:01:09.903Z,99.17
2018-10-21T23:03:38.308Z,100.80
2018-10-21T23:06:06.803Z,99.27
2018-10-21T23:08:35.179Z,101.07
2018-10-21T23:11:03.652Z,138.77
2018-10-21T23:13:32.061Z,136.70
2018-10-21T23:16:00.524Z,135.20
2018-10-21T23:18:29.214Z,111.47
2018-10-21T23:20:57.630Z,107.77
2018-10-21T23:23:26.011Z,106.43
2018-10-21T23:25:54.517Z,101.90
2018-10-21T23:28:22.907Z,104.30
2018-10-21T23:30:51.371Z,101.47
2018-10-21T23:33:19.767Z,99.27
2018-10-21T23:35:48.177Z,99.20
2018-10-21T23:38:16.569Z,96.33
2018-10-21T23:40:44.951Z,97.83
2018-10-21T23:43:13.339Z,96.20
2018-10-21T23:45:41.737Z,93.37
2018-10-21T23:48:10.249Z,94.87
2018-10-21T23:50:39.500Z,92.50
2018-10-21T23:53:07.887Z,90.33
2018-10-21T23:55:36.886Z,89.43
2018-10-21T23:58:05.429Z,90.17
